createdAt,value
2023-02-11T00:00:21.156Z,43.27
2023-02-11T00:01:31.950Z,43.29
2023-02-11T00:02:34.483Z,43.31
2023-02-11T00:03:38.957Z,43.33
2023-02-11T00:04:41.622Z,43.29
2023-02-11T00:05:45.180Z,43.27
2023-02-11T00:06:48.333Z,43.26
2023-02-11T00:07:51.136Z,43.25
2023-02-11T00:08:54.165Z,43.22
2023-02-11T00:09:56.646Z,43.22
2023-02-11T00:10:59.283Z,43.20
2023-02-11T00:12:02.735Z,43.19
2023-02-11T00:13:06.109Z,43.17
2023-02-11T00:14:10.700Z,43.21
2023-02-11T00:16:32.634Z,43.15
2023-02-11T00:17:35.699Z,43.14
2023-02-11T00:18:40.065Z,43.13
2023-02-11T00:21:10.584Z,43.12
2023-02-11T00:22:13.030Z,43.09
2023-02-11T00:23:16.444Z,43.12
2023-02-11T00:24:18.954Z,43.09
2023-02-11T00:25:21.744Z,43.07
2023-02-11T00:27:40.548Z,43.05
2023-02-11T00:28:43.051Z,43.04
2023-02-11T00:29:46.235Z,43.05
2023-02-11T00:30:57.468Z,43.05
2023-02-11T00:32:03.432Z,43.05
2023-02-11T00:33:05.949Z,43.03
2023-02-11T00:34:08.399Z,43.00
2023-02-11T00:35:12.589Z,43.00
2023-02-11T00:36:23.684Z,43.02
2023-02-11T00:37:26.465Z,42.99
2023-02-11T00:38:28.729Z,43.14
2023-02-11T00:39:31.622Z,43.11
2023-02-11T00:40:34.933Z,43.33
2023-02-11T00:41:39.255Z,43.57
2023-02-11T00:42:42.487Z,43.47
2023-02-11T00:43:45.063Z,43.41
2023-02-11T00:44:47.446Z,43.42
2023-02-11T00:45:52.487Z,43.51
2023-02-11T00:46:55.241Z,43.56
2023-02-11T00:47:57.552Z,43.59
2023-02-11T00:49:00.562Z,43.70
2023-02-11T00:50:05.678Z,43.73
2023-02-11T00:51:08.336Z,43.81
2023-02-11T00:52:10.669Z,43.85
2023-02-11T00:53:13.151Z,43.89
2023-02-11T00:54:15.479Z,43.96
2023-02-11T00:55:19.444Z,44.01
2023-02-11T00:56:23.070Z,44.04
2023-02-11T00:57:26.030Z,44.09
2023-02-11T00:58:28.506Z,44.11
2023-02-11T00:59:31.192Z,44.17
2023-02-11T01:00:39.566Z,44.22
2023-02-11T01:01:44.628Z,44.23
2023-02-11T01:04:05.514Z,44.29
2023-02-11T01:05:14.070Z,44.35
2023-02-11T01:06:21.745Z,44.36
2023-02-11T01:07:27.749Z,44.40
2023-02-11T01:08:32.556Z,44.47
2023-02-11T01:09:40.695Z,44.48
2023-02-11T01:10:43.541Z,44.49
2023-02-11T01:11:45.864Z,44.50
2023-02-11T01:12:48.615Z,44.50
2023-02-11T01:13:51.818Z,44.51
2023-02-11T01:14:55.986Z,44.55
2023-02-11T01:15:58.478Z,44.55
2023-02-11T01:17:01.215Z,44.56
2023-02-11T01:18:04.965Z,44.61
2023-02-11T01:19:07.594Z,44.60
2023-02-11T01:20:16.276Z,44.67
2023-02-11T01:21:18.959Z,44.66
2023-02-11T01:22:22.324Z,44.70
2023-02-11T01:23:25.888Z,44.73
2023-02-11T01:24:28.701Z,44.79
2023-02-11T01:25:32.250Z,44.75
2023-02-11T01:26:36.068Z,44.77
2023-02-11T01:27:38.954Z,44.79
2023-02-11T01:28:41.910Z,44.79
2023-02-11T01:29:44.273Z,44.75
2023-02-11T01:30:46.780Z,44.82
2023-02-11T01:31:49.457Z,44.81
2023-02-11T01:32:51.852Z,44.84
2023-02-11T01:33:54.508Z,44.82
2023-02-11T01:34:57.119Z,44.82
2023-02-11T01:36:03.648Z,44.87
2023-02-11T01:37:06.106Z,44.87
2023-02-11T01:38:10.501Z,44.92
2023-02-11T01:39:13.368Z,44.98
2023-02-11T01:40:16.822Z,45.10
2023-02-11T01:41:20.163Z,45.06
2023-02-11T01:42:22.753Z,45.09
2023-02-11T01:43:26.359Z,45.11
2023-02-11T01:44:35.542Z,45.11
2023-02-11T01:45:50.775Z,45.17
2023-02-11T01:46:55.050Z,45.22
2023-02-11T01:47:59.836Z,45.23
2023-02-11T01:49:17.969Z,45.28
2023-02-11T01:50:21.207Z,45.34
2023-02-11T01:52:40.865Z,45.40
2023-02-11T01:54:01.852Z,45.41
2023-02-11T01:55:26.775Z,45.43
2023-02-11T01:56:49.555Z,45.43
2023-02-11T01:57:55.397Z,45.42
2023-02-11T01:59:00.961Z,45.44
2023-02-11T02:00:21.015Z,45.51
2023-02-11T02:01:24.619Z,45.55
2023-02-11T02:02:39.692Z,45.58
2023-02-11T02:03:43.404Z,45.56
2023-02-11T02:04:55.753Z,45.60
2023-02-11T02:06:25.904Z,45.61
2023-02-11T02:08:55.443Z,45.57
2023-02-11T02:11:34.955Z,45.64
2023-02-11T02:12:38.440Z,45.65
2023-02-11T02:13:41.219Z,45.69
2023-02-11T02:14:43.774Z,45.70
2023-02-11T02:15:54.681Z,45.63
2023-02-11T02:16:57.495Z,45.65
2023-02-11T02:18:06.676Z,45.63
2023-02-11T02:19:42.172Z,45.62
2023-02-11T02:21:05.535Z,45.68
2023-02-11T02:22:31.596Z,45.69
2023-02-11T02:23:49.859Z,45.63
2023-02-11T02:25:00.404Z,45.63
2023-02-11T02:26:26.858Z,45.65
2023-02-11T02:27:39.168Z,45.67
2023-02-11T02:29:12.930Z,45.64
2023-02-11T02:30:24.865Z,45.72
2023-02-11T02:32:06.260Z,45.68
2023-02-11T02:33:23.096Z,45.71
2023-02-11T02:34:37.941Z,45.73
2023-02-11T02:35:44.188Z,45.71
2023-02-11T02:36:55.774Z,45.74
2023-02-11T02:38:04.756Z,45.75
2023-02-11T02:39:14.701Z,45.77
2023-02-11T02:41:35.558Z,45.74
2023-02-11T02:42:38.595Z,45.73
2023-02-11T02:43:45.301Z,45.75
2023-02-11T02:46:21.803Z,45.69
2023-02-11T02:47:24.348Z,45.64
2023-02-11T02:49:46.041Z,45.59
2023-02-11T02:50:49.450Z,45.54
2023-02-11T02:52:13.164Z,45.57
2023-02-11T02:54:49.322Z,45.49
2023-02-11T02:57:30.186Z,45.45
2023-02-11T02:58:47.308Z,45.43
2023-02-11T03:00:19.969Z,45.42
2023-02-11T03:01:29.787Z,45.39
2023-02-11T03:02:49.432Z,45.37
2023-02-11T03:05:17.444Z,45.45
2023-02-11T03:06:27.735Z,45.50
2023-02-11T03:08:01.238Z,45.51
2023-02-11T03:09:16.180Z,45.52
2023-02-11T03:11:37.690Z,45.45
2023-02-11T03:12:41.066Z,45.50
2023-02-11T03:13:44.096Z,45.50
2023-02-11T03:14:46.526Z,45.46
2023-02-11T03:15:51.148Z,45.47
2023-02-11T03:16:54.641Z,45.45
2023-02-11T03:17:58.711Z,45.47
2023-02-11T03:20:17.852Z,45.35
2023-02-11T03:21:21.672Z,45.34
2023-02-11T03:22:33.201Z,45.31
2023-02-11T03:23:40.956Z,45.29
2023-02-11T03:24:44.982Z,45.27
2023-02-11T03:25:53.182Z,45.28
2023-02-11T03:26:57.437Z,45.21
2023-02-11T03:28:18.281Z,45.20
2023-02-11T03:29:27.695Z,45.17
2023-02-11T03:30:34.637Z,45.11
2023-02-11T03:31:51.062Z,45.12
2023-02-11T03:32:56.177Z,45.21
2023-02-11T03:34:12.101Z,45.26
2023-02-11T03:36:57.911Z,45.22
2023-02-11T03:38:04.092Z,45.24
2023-02-11T03:39:06.779Z,45.26
2023-02-11T03:40:11.548Z,45.21
2023-02-11T03:41:14.367Z,45.23
2023-02-11T03:42:17.752Z,45.24
2023-02-11T03:43:39.580Z,45.22
2023-02-11T03:44:45.748Z,45.21
2023-02-11T03:45:49.669Z,45.19
2023-02-11T03:46:53.608Z,45.19
2023-02-11T03:48:00.535Z,45.18
2023-02-11T03:49:04.720Z,45.12
2023-02-11T03:50:08.648Z,45.09
2023-02-11T03:51:11.819Z,45.05
2023-02-11T03:52:15.192Z,45.04
2023-02-11T03:53:17.566Z,45.02
2023-02-11T03:54:22.959Z,45.00
2023-02-11T03:55:26.336Z,45.02
2023-02-11T03:56:31.676Z,44.97
2023-02-11T03:57:35.277Z,44.97
2023-02-11T03:58:37.600Z,44.94
2023-02-11T04:01:09.744Z,44.87
2023-02-11T04:02:12.726Z,44.88
2023-02-11T04:03:15.893Z,44.89
2023-02-11T04:04:18.810Z,44.92
2023-02-11T04:05:21.962Z,44.95
2023-02-11T04:06:24.717Z,44.98
2023-02-11T04:07:27.351Z,44.98
2023-02-11T04:08:32.158Z,45.00
2023-02-11T04:09:36.245Z,45.05
2023-02-11T04:10:38.811Z,45.07
2023-02-11T04:11:41.135Z,44.96
2023-02-11T04:12:43.353Z,44.93
2023-02-11T04:13:45.656Z,44.88
2023-02-11T04:14:48.165Z,44.88
2023-02-11T04:15:51.058Z,44.85
2023-02-11T04:16:54.709Z,44.86
2023-02-11T04:17:58.487Z,44.85
2023-02-11T04:19:01.199Z,44.84
2023-02-11T04:20:04.859Z,44.85
2023-02-11T04:21:07.564Z,44.86
2023-02-11T04:22:10.663Z,44.79
2023-02-11T04:23:13.477Z,44.79
2023-02-11T04:24:16.249Z,44.83
2023-02-11T04:25:18.574Z,44.84
2023-02-11T04:26:21.375Z,44.84
2023-02-11T04:27:24.187Z,44.85
2023-02-11T04:28:28.871Z,44.88
2023-02-11T04:29:31.537Z,44.91
2023-02-11T04:30:34.190Z,44.90
2023-02-11T04:31:36.674Z,44.85
2023-02-11T04:32:39.151Z,44.86
2023-02-11T04:33:41.477Z,44.86
2023-02-11T04:34:45.661Z,44.92
2023-02-11T04:35:49.503Z,44.93
2023-02-11T04:36:52.628Z,44.96
2023-02-11T04:37:54.967Z,44.93
2023-02-11T04:38:57.671Z,44.90
2023-02-11T04:40:00.735Z,44.91
2023-02-11T04:41:03.033Z,44.88
2023-02-11T04:42:07.124Z,44.87
2023-02-11T04:43:09.796Z,44.86
2023-02-11T04:44:12.203Z,44.85
2023-02-11T04:45:14.689Z,44.86
2023-02-11T04:46:18.887Z,44.84
2023-02-11T04:47:22.502Z,44.84
2023-02-11T04:48:25.389Z,44.83
2023-02-11T04:49:28.342Z,44.85
2023-02-11T04:50:31.721Z,44.87
2023-02-11T04:51:35.608Z,44.88
2023-02-11T04:52:38.894Z,44.95
2023-02-11T04:53:41.504Z,44.92
2023-02-11T04:54:45.290Z,44.97
2023-02-11T04:55:51.464Z,44.93
2023-02-11T04:56:55.008Z,44.98
2023-02-11T04:57:57.795Z,44.93
2023-02-11T04:59:00.208Z,44.96
2023-02-11T05:00:04.528Z,44.93
2023-02-11T05:01:08.655Z,44.89
2023-02-11T05:02:11.757Z,44.93
2023-02-11T05:03:14.259Z,44.95
2023-02-11T05:04:16.819Z,44.96
2023-02-11T05:05:19.409Z,44.93
2023-02-11T05:06:22.688Z,44.95
2023-02-11T05:07:25.613Z,44.92
2023-02-11T05:08:28.187Z,44.89
2023-02-11T05:09:31.567Z,44.90
2023-02-11T05:10:34.405Z,44.89
2023-02-11T05:11:38.770Z,44.86
2023-02-11T05:12:41.371Z,44.80
2023-02-11T05:13:43.810Z,44.79
2023-02-11T05:14:46.515Z,44.84
2023-02-11T05:15:49.343Z,44.81
2023-02-11T05:16:52.865Z,44.80
2023-02-11T05:18:03.055Z,44.76
2023-02-11T05:19:09.679Z,44.80
2023-02-11T05:20:13.319Z,44.84
2023-02-11T05:21:17.290Z,44.84
2023-02-11T05:23:35.987Z,44.77
2023-02-11T05:24:38.703Z,44.74
2023-02-11T05:25:41.793Z,44.73
2023-02-11T05:27:59.138Z,44.71
2023-02-11T05:29:01.765Z,44.67
2023-02-11T05:30:06.182Z,44.72
2023-02-11T05:31:10.166Z,44.77
2023-02-11T05:32:12.735Z,44.74
2023-02-11T05:33:15.879Z,44.70
2023-02-11T05:34:18.353Z,44.70
2023-02-11T05:35:20.673Z,44.72
2023-02-11T05:36:23.071Z,44.70
2023-02-11T05:37:25.501Z,44.64
2023-02-11T05:38:28.753Z,44.65
2023-02-11T05:39:31.168Z,44.61
2023-02-11T05:40:35.961Z,44.61
2023-02-11T05:41:38.396Z,44.58
2023-02-11T05:42:40.611Z,44.58
2023-02-11T05:43:43.013Z,44.69
2023-02-11T05:44:45.460Z,44.78
2023-02-11T05:45:47.947Z,44.88
2023-02-11T05:46:50.980Z,44.96
2023-02-11T05:47:53.942Z,44.94
2023-02-11T05:48:56.348Z,44.91
2023-02-11T05:49:58.755Z,44.78
2023-02-11T05:51:01.186Z,44.67
2023-02-11T05:52:04.905Z,44.55
2023-02-11T05:53:07.355Z,44.38
2023-02-11T05:54:10.174Z,44.30
2023-02-11T05:55:14.384Z,44.14
2023-02-11T05:56:19.164Z,44.02
2023-02-11T05:57:22.787Z,43.82
2023-02-11T05:58:25.518Z,43.62
2023-02-11T05:59:27.816Z,43.58
2023-02-11T06:00:30.329Z,43.62
2023-02-11T06:01:32.808Z,43.71
2023-02-11T06:02:36.191Z,43.84
2023-02-11T06:03:38.663Z,43.88
2023-02-11T06:04:41.219Z,43.92
2023-02-11T06:05:44.343Z,43.96
2023-02-11T06:06:46.801Z,44.00
2023-02-11T06:07:50.081Z,43.97
2023-02-11T06:08:53.005Z,43.95
2023-02-11T06:09:56.247Z,43.90
2023-02-11T06:10:58.918Z,43.92
2023-02-11T06:12:01.257Z,43.88
2023-02-11T06:13:03.810Z,43.86
2023-02-11T06:14:07.386Z,43.89
2023-02-11T06:15:09.974Z,43.89
2023-02-11T06:16:13.823Z,43.80
2023-02-11T06:17:16.393Z,43.68
2023-02-11T06:18:18.727Z,43.63
2023-02-11T06:19:21.892Z,43.60
2023-02-11T06:20:24.932Z,43.66
2023-02-11T06:21:42.440Z,43.66
2023-02-11T06:22:34.850Z,43.49
2023-02-11T06:23:38.211Z,43.52
2023-02-11T06:25:00.367Z,43.54
2023-02-11T06:25:46.762Z,43.56
2023-02-11T06:26:49.666Z,43.55
2023-02-11T06:27:52.374Z,43.57
2023-02-11T06:28:54.881Z,43.55
2023-02-11T06:29:57.948Z,43.58
2023-02-11T06:32:42.110Z,43.52
2023-02-11T06:33:25.221Z,43.52
2023-02-11T06:34:27.464Z,43.51
2023-02-11T06:35:30.423Z,43.52
2023-02-11T06:36:32.960Z,43.50
2023-02-11T06:37:35.348Z,43.46
2023-02-11T06:38:38.085Z,43.48
2023-02-11T06:39:41.211Z,43.48
2023-02-11T06:40:48.451Z,43.52
2023-02-11T06:41:51.298Z,43.55
2023-02-11T06:42:54.745Z,43.55
2023-02-11T06:43:57.776Z,43.56
2023-02-11T06:45:00.377Z,43.56
2023-02-11T06:46:03.137Z,43.57
2023-02-11T06:47:05.467Z,43.61
2023-02-11T06:48:07.999Z,43.57
2023-02-11T06:49:10.508Z,43.59
2023-02-11T06:50:15.371Z,43.64
2023-02-11T06:51:18.347Z,43.64
2023-02-11T06:52:20.805Z,43.75
2023-02-11T06:53:24.983Z,43.82
2023-02-11T06:54:28.312Z,43.83
2023-02-11T06:55:30.690Z,43.85
2023-02-11T06:56:34.312Z,43.88
2023-02-11T06:57:38.753Z,43.90
2023-02-11T06:58:42.272Z,43.95
2023-02-11T06:59:44.967Z,43.94
2023-02-11T07:00:48.892Z,43.99
2023-02-11T07:01:52.087Z,43.96
2023-02-11T07:02:55.218Z,43.96
2023-02-11T07:04:00.555Z,43.99
2023-02-11T07:05:04.979Z,43.97
2023-02-11T07:06:09.064Z,43.96
2023-02-11T07:07:11.974Z,44.03
2023-02-11T07:08:14.355Z,44.00
2023-02-11T07:09:17.962Z,44.03
2023-02-11T07:10:20.901Z,44.11
2023-02-11T07:12:39.266Z,44.02
2023-02-11T07:13:42.456Z,44.05
2023-02-11T07:14:45.598Z,44.07
2023-02-11T07:15:48.038Z,44.08
2023-02-11T07:16:50.859Z,44.10
2023-02-11T07:17:53.759Z,44.12
2023-02-11T07:18:56.120Z,44.13
2023-02-11T07:19:58.438Z,44.17
2023-02-11T07:21:05.913Z,44.18
2023-02-11T07:22:09.555Z,44.19
2023-02-11T07:23:12.043Z,44.17
2023-02-11T07:24:14.332Z,44.19
2023-02-11T07:25:16.825Z,44.22
2023-02-11T07:26:22.584Z,44.17
2023-02-11T07:27:24.980Z,44.15
2023-02-11T07:28:27.327Z,44.19
2023-02-11T07:29:30.064Z,44.21
2023-02-11T07:30:32.582Z,44.31
2023-02-11T07:31:36.144Z,44.31
2023-02-11T07:32:39.377Z,44.28
2023-02-11T07:33:41.807Z,44.32
2023-02-11T07:34:44.830Z,44.33
2023-02-11T07:35:49.364Z,44.62
2023-02-11T07:36:52.115Z,44.62
2023-02-11T07:37:54.532Z,44.72
2023-02-11T07:38:58.302Z,44.72
2023-02-11T07:40:00.671Z,44.78
2023-02-11T07:41:04.970Z,44.78
2023-02-11T07:42:08.556Z,44.83
2023-02-11T07:43:11.632Z,44.88
2023-02-11T07:44:13.910Z,44.91
2023-02-11T07:45:16.907Z,44.96
2023-02-11T07:47:35.095Z,45.30
2023-02-11T07:48:37.825Z,45.33
2023-02-11T07:49:40.045Z,45.31
2023-02-11T07:50:42.645Z,45.47
2023-02-11T07:51:45.454Z,45.51
2023-02-11T07:52:47.834Z,45.47
2023-02-11T07:53:52.453Z,45.57
2023-02-11T07:54:55.363Z,45.61
2023-02-11T07:55:59.810Z,45.67
2023-02-11T07:57:02.127Z,45.72
2023-02-11T07:58:04.439Z,45.74
2023-02-11T07:59:11.083Z,45.72
2023-02-11T08:00:17.501Z,45.63
2023-02-11T08:01:24.991Z,45.66
2023-02-11T08:02:27.866Z,45.61
2023-02-11T08:03:30.306Z,45.55
2023-02-11T08:04:34.471Z,45.50
2023-02-11T08:05:38.808Z,45.52
2023-02-11T08:06:42.469Z,45.56
2023-02-11T08:07:45.813Z,45.64
2023-02-11T08:08:48.353Z,45.72
2023-02-11T08:09:51.255Z,45.80
2023-02-11T08:10:55.420Z,45.85
2023-02-11T08:11:57.942Z,45.86
2023-02-11T08:13:00.884Z,45.84
2023-02-11T08:14:03.980Z,45.81
2023-02-11T08:16:23.298Z,45.78
2023-02-11T08:17:26.627Z,45.74
2023-02-11T08:18:30.113Z,45.71
2023-02-11T08:19:35.115Z,45.71
2023-02-11T08:20:37.079Z,45.73
2023-02-11T08:21:40.764Z,45.70
2023-02-11T08:22:43.278Z,45.67
2023-02-11T08:23:45.820Z,45.69
2023-02-11T08:24:50.672Z,45.70
2023-02-11T08:25:52.435Z,45.73
2023-02-11T08:26:55.445Z,45.66
2023-02-11T08:27:58.443Z,45.66
2023-02-11T08:29:01.914Z,45.66
2023-02-11T08:30:05.822Z,45.65
2023-02-11T08:31:09.517Z,45.63
2023-02-11T08:32:12.751Z,45.63
2023-02-11T08:33:15.274Z,45.57
2023-02-11T08:34:19.053Z,45.57
2023-02-11T08:35:21.509Z,45.55
2023-02-11T08:36:27.907Z,45.55
2023-02-11T08:37:33.269Z,45.52
2023-02-11T08:38:36.229Z,45.51
2023-02-11T08:39:40.842Z,45.46
2023-02-11T08:40:44.983Z,45.47
2023-02-11T08:41:52.276Z,45.46
2023-02-11T08:42:54.637Z,45.46
2023-02-11T08:43:57.025Z,45.44
2023-02-11T08:44:59.255Z,45.41
2023-02-11T08:46:03.422Z,45.47
2023-02-11T08:47:07.729Z,45.57
2023-02-11T08:48:10.191Z,45.61
2023-02-11T08:49:12.996Z,45.62
2023-02-11T08:50:18.228Z,45.63
2023-02-11T08:51:23.458Z,45.67
2023-02-11T08:52:26.721Z,45.68
2023-02-11T08:53:29.838Z,45.68
2023-02-11T08:54:32.507Z,45.67
2023-02-11T08:55:35.247Z,45.66
2023-02-11T08:56:38.312Z,45.64
2023-02-11T08:57:44.306Z,45.64
2023-02-11T08:58:47.814Z,45.62
2023-02-11T08:59:51.002Z,45.58
2023-02-11T09:00:54.051Z,45.55
2023-02-11T09:01:57.511Z,45.56
2023-02-11T09:03:01.599Z,45.64
2023-02-11T09:04:04.966Z,45.62
2023-02-11T09:05:10.526Z,45.57
2023-02-11T09:06:15.542Z,45.55
2023-02-11T09:07:18.213Z,45.57
2023-02-11T09:08:21.934Z,45.54
2023-02-11T09:09:24.917Z,45.76
2023-02-11T09:10:29.781Z,45.76
2023-02-11T09:11:34.527Z,44.33
2023-02-11T09:12:37.909Z,43.43
2023-02-11T09:14:56.756Z,40.96
2023-02-11T09:16:00.447Z,40.97
2023-02-11T09:17:04.938Z,41.59
2023-02-11T09:18:08.533Z,40.47
2023-02-11T09:19:11.690Z,40.93
2023-02-11T09:20:19.134Z,40.45
2023-02-11T09:21:21.905Z,40.39
2023-02-11T09:22:24.586Z,40.10
2023-02-11T09:23:28.117Z,40.17
2023-02-11T09:24:32.519Z,39.62
2023-02-11T09:25:34.981Z,39.01
2023-02-11T09:26:37.514Z,39.50
2023-02-11T09:27:41.133Z,39.52
2023-02-11T09:28:44.859Z,39.50
2023-02-11T09:29:48.129Z,39.51
2023-02-11T09:30:51.269Z,39.67
2023-02-11T09:31:54.750Z,38.72
2023-02-11T09:32:58.181Z,38.43
2023-02-11T09:34:11.392Z,38.89
2023-02-11T09:35:20.868Z,39.20
2023-02-11T09:37:41.696Z,39.05
2023-02-11T09:38:44.928Z,38.99
2023-02-11T09:39:51.762Z,38.87
2023-02-11T09:40:55.641Z,38.96
2023-02-11T09:42:37.780Z,38.66
2023-02-11T09:43:47.676Z,38.93
2023-02-11T09:44:51.726Z,38.92
2023-02-11T09:45:54.950Z,39.13
2023-02-11T09:47:08.594Z,39.23
2023-02-11T09:48:27.037Z,39.22
2023-02-11T09:49:43.952Z,39.42
2023-02-11T09:52:31.288Z,39.41
2023-02-11T09:53:37.894Z,39.46
2023-02-11T09:54:52.050Z,39.15
2023-02-11T09:56:02.323Z,39.23
2023-02-11T09:57:06.397Z,36.55
2023-02-11T09:59:31.485Z,36.37
2023-02-11T10:00:58.488Z,37.60
2023-02-11T10:02:08.200Z,38.16
2023-02-11T10:05:07.458Z,39.30
2023-02-11T10:06:25.406Z,39.83
2023-02-11T10:07:37.927Z,40.69
2023-02-11T10:09:08.803Z,40.77
2023-02-11T10:10:18.391Z,40.69
2023-02-11T10:11:54.339Z,39.19
2023-02-11T10:13:00.881Z,38.74
2023-02-11T10:14:27.991Z,39.90
2023-02-11T10:16:07.050Z,39.05
2023-02-11T10:18:54.932Z,39.43
2023-02-11T10:20:10.226Z,39.69
2023-02-11T10:21:42.446Z,39.17
2023-02-11T10:22:49.574Z,39.46
2023-02-11T10:23:54.939Z,40.09
2023-02-11T10:25:00.590Z,39.34
2023-02-11T10:26:03.494Z,39.12
2023-02-11T10:27:10.300Z,39.65
2023-02-11T10:29:38.518Z,40.46
2023-02-11T10:30:52.415Z,40.22
2023-02-11T10:31:58.219Z,39.97
2023-02-11T10:33:15.873Z,39.92
2023-02-11T10:34:19.798Z,39.66
2023-02-11T10:35:23.098Z,40.33
2023-02-11T10:36:28.582Z,39.77
2023-02-11T10:37:31.820Z,39.42
2023-02-11T10:38:36.409Z,38.70
2023-02-11T10:39:40.073Z,38.91
2023-02-11T10:40:43.295Z,39.32
2023-02-11T10:42:14.826Z,36.98
2023-02-11T10:44:56.065Z,37.44
2023-02-11T10:45:59.314Z,37.68
2023-02-11T10:47:06.092Z,38.82
2023-02-11T10:49:44.100Z,39.45
2023-02-11T10:50:46.688Z,39.65
2023-02-11T10:51:50.689Z,39.68
2023-02-11T10:52:55.720Z,39.68
2023-02-11T10:54:07.713Z,39.67
2023-02-11T10:56:34.067Z,39.58
2023-02-11T10:57:39.543Z,39.62
2023-02-11T10:58:46.758Z,39.64
2023-02-11T10:59:49.355Z,39.59
2023-02-11T11:01:24.443Z,39.41
2023-02-11T11:02:28.653Z,39.41
2023-02-11T11:03:37.656Z,39.37
2023-02-11T11:04:44.563Z,39.21
2023-02-11T11:07:21.450Z,39.20
2023-02-11T11:11:06.618Z,39.04
2023-02-11T11:12:32.933Z,39.02
2023-02-11T11:13:40.250Z,39.02
2023-02-11T11:14:46.511Z,39.02
2023-02-11T11:17:33.230Z,39.23
2023-02-11T11:18:38.640Z,39.30
2023-02-11T11:20:59.513Z,39.59
2023-02-11T11:22:02.943Z,39.69
2023-02-11T11:23:26.409Z,39.79
2023-02-11T11:24:48.228Z,39.88
2023-02-11T11:26:12.685Z,40.06
2023-02-11T11:27:21.736Z,40.12
2023-02-11T11:28:26.543Z,40.31
2023-02-11T11:30:48.419Z,40.97
2023-02-11T11:31:53.824Z,41.20
2023-02-11T11:32:57.746Z,41.29
2023-02-11T11:34:02.886Z,41.48
2023-02-11T11:35:10.569Z,41.43
2023-02-11T11:36:18.761Z,41.44
2023-02-11T11:37:27.942Z,41.62
2023-02-11T11:38:31.528Z,41.71
2023-02-11T11:39:34.275Z,41.69
2023-02-11T11:40:37.995Z,41.75
2023-02-11T11:41:42.324Z,41.71
2023-02-11T11:42:46.536Z,41.72
2023-02-11T11:44:03.900Z,41.75
2023-02-11T11:45:24.789Z,41.80
2023-02-11T11:46:36.205Z,41.77
2023-02-11T11:47:41.367Z,41.82
2023-02-11T11:48:47.051Z,41.81
2023-02-11T11:50:22.747Z,41.86
2023-02-11T11:51:29.068Z,41.91
2023-02-11T11:52:43.251Z,41.97
2023-02-11T11:55:43.301Z,41.98
2023-02-11T11:56:52.674Z,42.02
2023-02-11T11:57:55.676Z,42.05
2023-02-11T12:00:30.451Z,42.12
2023-02-11T12:02:13.600Z,42.11
2023-02-11T12:03:45.313Z,42.22
2023-02-11T12:06:40.578Z,42.25
2023-02-11T12:08:06.788Z,42.30
2023-02-11T12:09:28.862Z,42.40
2023-02-11T12:10:53.986Z,42.44
2023-02-11T12:13:27.387Z,42.51
2023-02-11T12:15:00.576Z,42.56
2023-02-11T12:16:24.084Z,42.51
2023-02-11T12:18:07.801Z,42.59
2023-02-11T12:19:44.206Z,42.53
2023-02-11T12:21:00.183Z,42.59
2023-02-11T12:22:14.945Z,42.62
2023-02-11T12:23:38.137Z,42.64
2023-02-11T12:25:02.962Z,42.68
2023-02-11T12:26:13.064Z,42.64
2023-02-11T12:27:32.924Z,42.59
2023-02-11T12:29:00.194Z,42.58
2023-02-11T12:30:30.518Z,42.54
2023-02-11T12:32:01.370Z,42.53
2023-02-11T12:33:41.537Z,42.49
2023-02-11T12:34:56.574Z,42.49
2023-02-11T12:36:10.045Z,42.48
2023-02-11T12:37:42.002Z,42.56
2023-02-11T12:39:08.692Z,42.62
2023-02-11T12:40:25.624Z,42.65
2023-02-11T12:42:09.697Z,42.67
2023-02-11T12:43:24.021Z,42.69
2023-02-11T12:44:38.545Z,42.71
2023-02-11T12:46:16.917Z,42.74
2023-02-11T12:47:43.219Z,42.75
2023-02-11T12:49:02.174Z,42.76
2023-02-11T12:50:28.165Z,42.76
2023-02-11T12:52:00.718Z,42.80
2023-02-11T12:53:28.680Z,42.81
2023-02-11T12:54:42.170Z,42.82
2023-02-11T12:55:47.658Z,42.82
2023-02-11T12:57:04.298Z,42.84
2023-02-11T12:58:09.291Z,42.86
2023-02-11T12:59:31.900Z,42.85
2023-02-11T13:02:19.990Z,42.83
2023-02-11T13:03:29.438Z,42.82
2023-02-11T13:04:37.394Z,42.81
2023-02-11T13:05:57.949Z,42.80
2023-02-11T13:07:04.973Z,42.75
2023-02-11T13:09:41.173Z,42.70
2023-02-11T13:10:47.324Z,42.67
2023-02-11T13:13:18.252Z,42.66
2023-02-11T13:14:35.272Z,42.61
2023-02-11T13:15:38.657Z,42.60
2023-02-11T13:16:44.247Z,42.55
2023-02-11T13:17:53.608Z,42.56
2023-02-11T13:19:03.249Z,42.55
2023-02-11T13:20:28.940Z,42.54
2023-02-11T13:23:43.051Z,42.45
2023-02-11T13:26:23.608Z,42.47
2023-02-11T13:29:13.557Z,42.49
2023-02-11T13:30:33.384Z,42.54
2023-02-11T13:31:37.081Z,42.52
2023-02-11T13:32:59.914Z,42.51
2023-02-11T13:34:04.365Z,42.52
2023-02-11T13:35:12.726Z,42.48
2023-02-11T13:37:37.953Z,42.46
2023-02-11T13:38:40.357Z,42.46
2023-02-11T13:39:43.661Z,42.45
2023-02-11T13:40:50.164Z,42.45
2023-02-11T13:41:55.903Z,42.41
2023-02-11T13:42:59.841Z,42.37
2023-02-11T13:44:12.513Z,42.38
2023-02-11T13:47:00.859Z,42.29
2023-02-11T13:48:09.525Z,42.25
2023-02-11T13:50:35.900Z,42.24
2023-02-11T13:51:40.020Z,42.26
2023-02-11T13:52:43.090Z,42.41
2023-02-11T13:55:16.844Z,42.69
2023-02-11T13:56:31.946Z,42.74
2023-02-11T13:57:36.690Z,42.67
2023-02-11T13:58:48.896Z,42.69
2023-02-11T14:01:41.314Z,42.53
2023-02-11T14:03:02.993Z,42.42
2023-02-11T14:04:41.739Z,42.33
2023-02-11T14:06:07.299Z,42.26
2023-02-11T14:07:40.482Z,42.12
2023-02-11T14:09:03.954Z,42.07
2023-02-11T14:10:27.874Z,42.57
2023-02-11T14:11:54.975Z,43.60
2023-02-11T14:13:06.531Z,43.60
2023-02-11T14:14:36.409Z,43.65
2023-02-11T14:15:40.017Z,43.52
2023-02-11T14:17:08.908Z,43.54
2023-02-11T14:18:45.819Z,43.67
2023-02-11T14:19:48.999Z,43.98
2023-02-11T14:20:54.544Z,44.05
2023-02-11T14:22:03.453Z,44.17
2023-02-11T14:23:06.767Z,44.42
2023-02-11T14:24:13.795Z,44.51
2023-02-11T14:26:50.574Z,44.58
2023-02-11T14:28:04.198Z,44.50
2023-02-11T14:29:34.915Z,44.41
2023-02-11T14:32:42.001Z,44.37
2023-02-11T14:34:09.641Z,44.45
2023-02-11T14:35:18.812Z,44.57
2023-02-11T14:36:44.204Z,44.61
2023-02-11T14:38:07.669Z,44.74
2023-02-11T14:41:01.834Z,44.86
2023-02-11T14:42:04.808Z,44.94
2023-02-11T14:44:30.576Z,45.00
2023-02-11T14:45:33.963Z,45.20
2023-02-11T14:46:36.704Z,45.34
2023-02-11T14:48:03.205Z,45.33
2023-02-11T14:49:06.028Z,45.27
2023-02-11T14:50:21.182Z,45.20
2023-02-11T14:51:31.007Z,45.16
2023-02-11T14:52:34.987Z,45.07
2023-02-11T14:53:38.042Z,45.07
2023-02-11T14:54:41.385Z,45.07
2023-02-11T14:55:48.763Z,45.05
2023-02-11T14:58:31.353Z,44.93
2023-02-11T14:59:36.942Z,44.97
2023-02-11T15:00:58.228Z,44.96
2023-02-11T15:02:01.369Z,44.95
2023-02-11T15:03:04.855Z,44.92
2023-02-11T15:04:23.207Z,44.86
2023-02-11T15:05:27.678Z,44.86
2023-02-11T15:06:37.996Z,44.83
2023-02-11T15:07:48.580Z,44.79
2023-02-11T15:09:01.931Z,44.76
2023-02-11T15:10:07.364Z,44.74
2023-02-11T15:11:12.957Z,44.73
2023-02-11T15:12:20.255Z,44.74
2023-02-11T15:13:27.147Z,44.70
2023-02-11T15:14:35.379Z,44.73
2023-02-11T15:15:42.011Z,44.81
2023-02-11T15:16:45.764Z,44.97
2023-02-11T15:17:48.294Z,44.93
2023-02-11T15:20:15.842Z,45.06
2023-02-11T15:21:27.092Z,45.04
2023-02-11T15:22:32.932Z,45.02
2023-02-11T15:23:35.747Z,45.05
2023-02-11T15:24:40.405Z,45.05
2023-02-11T15:25:49.448Z,45.05
2023-02-11T15:27:07.435Z,45.02
2023-02-11T15:28:20.894Z,45.03
2023-02-11T15:29:27.185Z,44.95
2023-02-11T15:30:34.557Z,44.90
2023-02-11T15:31:37.564Z,44.91
2023-02-11T15:32:48.128Z,44.83
2023-02-11T15:33:51.266Z,44.85
2023-02-11T15:34:59.738Z,44.77
2023-02-11T15:36:04.972Z,44.75
2023-02-11T15:37:07.924Z,44.67
2023-02-11T15:38:11.539Z,44.66
2023-02-11T15:39:38.809Z,44.77
2023-02-11T15:41:00.348Z,44.73
2023-02-11T15:42:20.454Z,44.65
2023-02-11T15:43:23.023Z,44.65
2023-02-11T15:44:28.249Z,44.79
2023-02-11T15:45:34.814Z,44.79
2023-02-11T15:46:38.396Z,44.67
2023-02-11T15:47:45.055Z,44.66
2023-02-11T15:48:50.513Z,44.68
2023-02-11T15:49:55.192Z,44.64
2023-02-11T15:51:01.986Z,44.70
2023-02-11T15:52:07.340Z,44.64
2023-02-11T15:53:31.066Z,44.62
2023-02-11T15:54:37.476Z,44.60
2023-02-11T15:55:40.516Z,44.55
2023-02-11T15:56:47.356Z,44.52